sensor_id;sensor_type;location;lat;lon;timestamp;pressure;altitude;pressure_sealevel;temperature;humidity
14594;BME280;7383;52.354;9.756;2023-05-23T00:00:28;-12805.97;;;20.28;100.00
14594;BME280;7383;52.354;9.756;2023-05-23T00:02:57;-12805.97;;;20.28;100.00
14594;BME280;7383;52.354;9.756;2023-05-23T00:05:24;-12805.97;;;20.28;100.00
14594;BME280;7383;52.354;9.756;2023-05-23T00:07:51;-12805.72;;;20.27;100.00
14594;BME280;7383;52.354;9.756;2023-05-23T00:10:17;-12805.97;;;20.28;100.00
14594;BME280;7383;52.354;9.756;2023-05-23T00:12:44;-12805.63;;;20.26;100.00
14594;BME280;7383;52.354;9.756;2023-05-23T00:15:12;-12806.16;;;20.29;100.00
14594;BME280;7383;52.354;9.756;2023-05-23T00:17:40;-12805.91;;;20.28;100.00
14594;BME280;7383;52.354;9.756;2023-05-23T00:20:07;-12805.63;;;20.26;100.00
14594;BME280;7383;52.354;9.756;2023-05-23T00:22:35;-12805.81;;;20.27;100.00
14594;BME280;7383;52.354;9.756;2023-05-23T00:25:07;-12805.19;;;20.24;100.00
14594;BME280;7383;52.354;9.756;2023-05-23T00:27:33;-12805.19;;;20.24;100.00
14594;BME280;7383;52.354;9.756;2023-05-23T00:30:00;-12805.19;;;20.24;100.00
14594;BME280;7383;52.354;9.756;2023-05-23T00:32:26;-12805.03;;;20.23;100.00
14594;BME280;7383;52.354;9.756;2023-05-23T00:34:54;-12804.09;;;20.17;100.00
14594;BME280;7383;52.354;9.756;2023-05-23T00:37:21;-12803.81;;;20.15;100.00
14594;BME280;7383;52.354;9.756;2023-05-23T00:39:47;-12803.31;;;20.12;100.00
14594;BME280;7383;52.354;9.756;2023-05-23T00:42:14;-12802.38;;;20.07;100.00
14594;BME280;7383;52.354;9.756;2023-05-23T00:44:40;-12802.72;;;20.09;100.00
14594;BME280;7383;52.354;9.756;2023-05-23T00:47:07;-12801.94;;;20.04;100.00
14594;BME280;7383;52.354;9.756;2023-05-23T00:49:34;-12802.28;;;20.06;100.00
14594;BME280;7383;52.354;9.756;2023-05-23T00:52:02;-12801.50;;;20.02;100.00
14594;BME280;7383;52.354;9.756;2023-05-23T00:54:29;-12800.72;;;19.97;100.00
14594;BME280;7383;52.354;9.756;2023-05-23T00:56:57;-12801.00;;;19.99;100.00
14594;BME280;7383;52.354;9.756;2023-05-23T00:59:24;-12800.22;;;19.94;100.00
14594;BME280;7383;52.354;9.756;2023-05-23T01:01:53;-12799.69;;;19.91;100.00
14594;BME280;7383;52.354;9.756;2023-05-23T01:04:21;-12798.66;;;19.85;100.00
14594;BME280;7383;52.354;9.756;2023-05-23T01:06:51;-12797.63;;;19.79;100.00
14594;BME280;7383;52.354;9.756;2023-05-23T01:09:19;-12796.69;;;19.74;100.00
14594;BME280;7383;52.354;9.756;2023-05-23T01:11:53;-12795.41;;;19.66;100.00
14594;BME280;7383;52.354;9.756;2023-05-23T01:14:31;-12794.03;;;19.58;100.00
14594;BME280;7383;52.354;9.756;2023-05-23T01:17:06;-12792.81;;;19.51;100.00
14594;BME280;7383;52.354;9.756;2023-05-23T01:19:53;-12792.31;;;19.48;100.00
14594;BME280;7383;52.354;9.756;2023-05-23T01:22:32;-12791.19;;;19.41;100.00
14594;BME280;7383;52.354;9.756;2023-05-23T01:25:08;-12790.16;;;19.35;100.00
14594;BME280;7383;52.354;9.756;2023-05-23T01:27:46;-12789.28;;;19.30;100.00
14594;BME280;7383;52.354;9.756;2023-05-23T01:30:17;-12787.31;;;19.18;100.00
14594;BME280;7383;52.354;9.756;2023-05-23T01:32:45;-12786.97;;;19.16;100.00
14594;BME280;7383;52.354;9.756;2023-05-23T01:35:13;-12786.19;;;19.12;100.00
14594;BME280;7383;52.354;9.756;2023-05-23T01:37:44;-12786.28;;;19.12;100.00
14594;BME280;7383;52.354;9.756;2023-05-23T01:40:11;-12785.75;;;19.09;100.00
14594;BME280;7383;52.354;9.756;2023-05-23T01:42:38;-12783.34;;;18.95;100.00
14594;BME280;7383;52.354;9.756;2023-05-23T01:45:07;-12783.34;;;18.95;100.00
14594;BME280;7383;52.354;9.756;2023-05-23T01:47:34;-12782.91;;;18.93;100.00
14594;BME280;7383;52.354;9.756;2023-05-23T01:50:02;-12782.06;;;18.88;100.00
14594;BME280;7383;52.354;9.756;2023-05-23T01:52:28;-12782.50;;;18.90;100.00
14594;BME280;7383;52.354;9.756;2023-05-23T01:54:55;-12780.69;;;18.80;100.00
14594;BME280;7383;52.354;9.756;2023-05-23T01:57:23;-12780.94;;;18.81;100.00
14594;BME280;7383;52.354;9.756;2023-05-23T01:59:49;-12780.41;;;18.78;100.00
14594;BME280;7383;52.354;9.756;2023-05-23T02:02:18;-12780.00;;;18.76;100.00
14594;BME280;7383;52.354;9.756;2023-05-23T02:04:44;-12779.38;;;18.72;100.00
14594;BME280;7383;52.354;9.756;2023-05-23T02:07:10;-12778.97;;;18.70;100.00
14594;BME280;7383;52.354;9.756;2023-05-23T02:09:37;-12778.69;;;18.68;100.00
14594;BME280;7383;52.354;9.756;2023-05-23T02:12:04;-12777.84;;;18.63;100.00
14594;BME280;7383;52.354;9.756;2023-05-23T02:14:30;-12777.84;;;18.63;100.00
14594;BME280;7383;52.354;9.756;2023-05-23T02:16:56;-12778.44;;;18.66;100.00
14594;BME280;7383;52.354;9.756;2023-05-23T02:19:25;-12778.59;;;18.67;100.00
14594;BME280;7383;52.354;9.756;2023-05-23T02:21:52;-12778.59;;;18.67;100.00
14594;BME280;7383;52.354;9.756;2023-05-23T02:24:18;-12778.00;;;18.64;100.00
14594;BME280;7383;52.354;9.756;2023-05-23T02:26:45;-12777.41;;;18.60;100.00
14594;BME280;7383;52.354;9.756;2023-05-23T02:29:11;-12777.50;;;18.61;100.00
14594;BME280;7383;52.354;9.756;2023-05-23T02:31:38;-12776.63;;;18.56;100.00
14594;BME280;7383;52.354;9.756;2023-05-23T02:34:04;-12776.19;;;18.53;100.00
14594;BME280;7383;52.354;9.756;2023-05-23T02:36:32;-12776.28;;;18.54;100.00
14594;BME280;7383;52.354;9.756;2023-05-23T02:39:07;-12776.28;;;18.54;100.00
14594;BME280;7383;52.354;9.756;2023-05-23T02:41:33;-12775.84;;;18.51;100.00
14594;BME280;7383;52.354;9.756;2023-05-23T02:44:01;-12775.78;;;18.51;100.00
14594;BME280;7383;52.354;9.756;2023-05-23T02:46:28;-12776.03;;;18.52;100.00
14594;BME280;7383;52.354;9.756;2023-05-23T02:48:54;-12775.59;;;18.50;100.00
14594;BME280;7383;52.354;9.756;2023-05-23T02:51:23;-12775.06;;;18.47;100.00
14594;BME280;7383;52.354;9.756;2023-05-23T02:53:51;-12774.38;;;18.43;100.00
14594;BME280;7383;52.354;9.756;2023-05-23T02:56:19;-12773.44;;;18.37;100.00
14594;BME280;7383;52.354;9.756;2023-05-23T02:58:46;-12773.44;;;18.37;100.00
14594;BME280;7383;52.354;9.756;2023-05-23T03:01:12;-12773.53;;;18.38;100.00
14594;BME280;7383;52.354;9.756;2023-05-23T03:03:39;-12773.34;;;18.37;100.00
14594;BME280;7383;52.354;9.756;2023-05-23T03:06:07;-12773.34;;;18.37;100.00
14594;BME280;7383;52.354;9.756;2023-05-23T03:08:34;-12772.91;;;18.34;100.00
14594;BME280;7383;52.354;9.756;2023-05-23T03:11:02;-12772.50;;;18.32;100.00
14594;BME280;7383;52.354;9.756;2023-05-23T03:13:29;-12771.53;;;18.26;100.00
14594;BME280;7383;52.354;9.756;2023-05-23T03:15:55;-12771.38;;;18.25;100.00
14594;BME280;7383;52.354;9.756;2023-05-23T03:18:22;-12771.38;;;18.25;100.00
14594;BME280;7383;52.354;9.756;2023-05-23T03:20:49;-12771.78;;;18.28;100.00
14594;BME280;7383;52.354;9.756;2023-05-23T03:23:15;-12771.72;;;18.27;100.00
14594;BME280;7383;52.354;9.756;2023-05-23T03:25:42;-12771.63;;;18.27;100.00
14594;BME280;7383;52.354;9.756;2023-05-23T03:28:10;-12771.19;;;18.24;100.00
14594;BME280;7383;52.354;9.756;2023-05-23T03:30:37;-12771.53;;;18.26;100.00
14594;BME280;7383;52.354;9.756;2023-05-23T03:33:03;-12772.50;;;18.32;100.00
14594;BME280;7383;52.354;9.756;2023-05-23T03:35:31;-12771.97;;;18.29;100.00
14594;BME280;7383;52.354;9.756;2023-05-23T03:37:57;-12772.31;;;18.31;100.00
14594;BME280;7383;52.354;9.756;2023-05-23T03:40:27;-12772.31;;;18.31;100.00
14594;BME280;7383;52.354;9.756;2023-05-23T03:43:03;-12772.16;;;18.30;100.00
14594;BME280;7383;52.354;9.756;2023-05-23T03:45:32;-12771.28;;;18.25;100.00
14594;BME280;7383;52.354;9.756;2023-05-23T03:47:59;-12770.84;;;18.22;100.00
14594;BME280;7383;52.354;9.756;2023-05-23T03:50:25;-12770.69;;;18.21;100.00
14594;BME280;7383;52.354;9.756;2023-05-23T03:52:52;-12771.03;;;18.23;100.00
14594;BME280;7383;52.354;9.756;2023-05-23T03:55:19;-12771.03;;;18.23;100.00
14594;BME280;7383;52.354;9.756;2023-05-23T03:57:48;-12772.06;;;18.29;100.00
14594;BME280;7383;52.354;9.756;2023-05-23T04:00:15;-12771.38;;;18.25;100.00
14594;BME280;7383;52.354;9.756;2023-05-23T04:02:44;-12770.34;;;18.19;100.00
14594;BME280;7383;52.354;9.756;2023-05-23T04:05:11;-12769.13;;;18.12;100.00
14594;BME280;7383;52.354;9.756;2023-05-23T04:07:37;-12770.00;;;18.17;100.00
14594;BME280;7383;52.354;9.756;2023-05-23T04:10:07;-12770.41;;;18.19;100.00
14594;BME280;7383;52.354;9.756;2023-05-23T04:12:34;-12770.16;;;18.18;100.00
14594;BME280;7383;52.354;9.756;2023-05-23T04:15:01;-12770.84;;;18.22;100.00
14594;BME280;7383;52.354;9.756;2023-05-23T04:17:28;-12770.06;;;18.17;100.00
14594;BME280;7383;52.354;9.756;2023-05-23T04:19:56;-12769.66;;;18.15;100.00
14594;BME280;7383;52.354;9.756;2023-05-23T04:22:23;-12769.38;;;18.13;100.00
14594;BME280;7383;52.354;9.756;2023-05-23T04:24:49;-12769.28;;;18.13;100.00
14594;BME280;7383;52.354;9.756;2023-05-23T04:27:16;-12769.22;;;18.12;100.00
14594;BME280;7383;52.354;9.756;2023-05-23T04:29:42;-12769.03;;;18.11;100.00
14594;BME280;7383;52.354;9.756;2023-05-23T04:32:11;-12768.25;;;18.07;100.00
14594;BME280;7383;52.354;9.756;2023-05-23T04:34:37;-12766.72;;;17.98;100.00
14594;BME280;7383;52.354;9.756;2023-05-23T04:37:08;-12766.97;;;17.99;100.00
14594;BME280;7383;52.354;9.756;2023-05-23T04:39:34;-12766.44;;;17.96;100.00
14594;BME280;7383;52.354;9.756;2023-05-23T04:42:02;-12766.09;;;17.94;100.00
14594;BME280;7383;52.354;9.756;2023-05-23T04:44:31;-12766.78;;;17.98;100.00
14594;BME280;7383;52.354;9.756;2023-05-23T04:46:58;-12766.53;;;17.97;100.00
14594;BME280;7383;52.354;9.756;2023-05-23T04:49:26;-12766.09;;;17.94;100.00
14594;BME280;7383;52.354;9.756;2023-05-23T04:51:53;-12766.38;;;17.96;100.00
14594;BME280;7383;52.354;9.756;2023-05-23T04:54:21;-12766.28;;;17.95;100.00
14594;BME280;7383;52.354;9.756;2023-05-23T04:56:48;-12766.44;;;17.96;100.00
14594;BME280;7383;52.354;9.756;2023-05-23T04:59:14;-12767.31;;;18.01;100.00
14594;BME280;7383;52.354;9.756;2023-05-23T05:01:41;-12767.75;;;18.04;100.00
14594;BME280;7383;52.354;9.756;2023-05-23T05:04:09;-12767.56;;;18.03;100.00
14594;BME280;7383;52.354;9.756;2023-05-23T05:06:36;-12767.41;;;18.02;100.00
14594;BME280;7383;52.354;9.756;2023-05-23T05:09:03;-12766.44;;;17.96;100.00
14594;BME280;7383;52.354;9.756;2023-05-23T05:11:31;-12764.91;;;17.87;100.00
14594;BME280;7383;52.354;9.756;2023-05-23T05:13:58;-12764.56;;;17.85;100.00
14594;BME280;7383;52.354;9.756;2023-05-23T05:16:25;-12765.25;;;17.89;100.00
14594;BME280;7383;52.354;9.756;2023-05-23T05:18:53;-12765.06;;;17.88;100.00
14594;BME280;7383;52.354;9.756;2023-05-23T05:21:20;-12763.94;;;17.82;100.00
14594;BME280;7383;52.354;9.756;2023-05-23T05:23:46;-12763.34;;;17.78;100.00
14594;BME280;7383;52.354;9.756;2023-05-23T05:26:13;-12763.00;;;17.76;100.00
14594;BME280;7383;52.354;9.756;2023-05-23T05:28:43;-12763.09;;;17.77;100.00
14594;BME280;7383;52.354;9.756;2023-05-23T05:31:09;-12762.81;;;17.75;100.00
14594;BME280;7383;52.354;9.756;2023-05-23T05:33:39;-12762.47;;;17.73;100.00
14594;BME280;7383;52.354;9.756;2023-05-23T05:36:06;-12762.31;;;17.72;100.00
14594;BME280;7383;52.354;9.756;2023-05-23T05:38:33;-12762.31;;;17.72;100.00
14594;BME280;7383;52.354;9.756;2023-05-23T05:40:59;-12761.63;;;17.68;100.00
14594;BME280;7383;52.354;9.756;2023-05-23T05:43:26;-12761.44;;;17.67;100.00
14594;BME280;7383;52.354;9.756;2023-05-23T05:45:56;-12761.28;;;17.66;100.00
14594;BME280;7383;52.354;9.756;2023-05-23T05:48:23;-12761.63;;;17.68;100.00
14594;BME280;7383;52.354;9.756;2023-05-23T05:50:49;-12762.06;;;17.70;100.00
14594;BME280;7383;52.354;9.756;2023-05-23T05:53:16;-12761.44;;;17.67;100.00
14594;BME280;7383;52.354;9.756;2023-05-23T05:55:42;-12761.88;;;17.69;100.00
14594;BME280;7383;52.354;9.756;2023-05-23T05:58:09;-12762.22;;;17.72;100.00
14594;BME280;7383;52.354;9.756;2023-05-23T06:00:35;-12762.81;;;17.75;100.00
14594;BME280;7383;52.354;9.756;2023-05-23T06:03:08;-12762.91;;;17.76;100.00
14594;BME280;7383;52.354;9.756;2023-05-23T06:05:35;-12762.41;;;17.73;100.00
14594;BME280;7383;52.354;9.756;2023-05-23T06:08:03;-12762.91;;;17.76;100.00
14594;BME280;7383;52.354;9.756;2023-05-23T06:10:30;-12761.97;;;17.70;100.00
14594;BME280;7383;52.354;9.756;2023-05-23T06:12:57;-12762.06;;;17.70;100.00
14594;BME280;7383;52.354;9.756;2023-05-23T06:15:23;-12761.78;;;17.69;100.00
14594;BME280;7383;52.354;9.756;2023-05-23T06:17:50;-12761.44;;;17.67;100.00
14594;BME280;7383;52.354;9.756;2023-05-23T06:20:17;-12761.44;;;17.67;100.00
14594;BME280;7383;52.354;9.756;2023-05-23T06:22:44;-12761.63;;;17.68;100.00
14594;BME280;7383;52.354;9.756;2023-05-23T06:25:11;-12761.28;;;17.66;100.00
14594;BME280;7383;52.354;9.756;2023-05-23T06:27:37;-12760.75;;;17.63;100.00
14594;BME280;7383;52.354;9.756;2023-05-23T06:30:05;-12760.94;;;17.64;100.00
14594;BME280;7383;52.354;9.756;2023-05-23T06:32:31;-12761.09;;;17.65;100.00
14594;BME280;7383;52.354;9.756;2023-05-23T06:34:58;-12761.44;;;17.67;100.00
14594;BME280;7383;52.354;9.756;2023-05-23T06:37:25;-12761.97;;;17.70;100.00
14594;BME280;7383;52.354;9.756;2023-05-23T06:39:52;-12761.88;;;17.69;100.00
14594;BME280;7383;52.354;9.756;2023-05-23T06:42:18;-12762.22;;;17.72;100.00
14594;BME280;7383;52.354;9.756;2023-05-23T06:44:45;-12762.56;;;17.74;100.00
14594;BME280;7383;52.354;9.756;2023-05-23T06:47:11;-12761.97;;;17.70;100.00
14594;BME280;7383;52.354;9.756;2023-05-23T06:49:38;-12761.97;;;17.70;100.00
14594;BME280;7383;52.354;9.756;2023-05-23T06:52:04;-12761.34;;;17.66;100.00
14594;BME280;7383;52.354;9.756;2023-05-23T06:54:32;-12761.72;;;17.68;100.00
14594;BME280;7383;52.354;9.756;2023-05-23T06:56:58;-12761.97;;;17.70;100.00
14594;BME280;7383;52.354;9.756;2023-05-23T06:59:25;-12761.53;;;17.67;100.00
14594;BME280;7383;52.354;9.756;2023-05-23T07:01:51;-12761.28;;;17.66;100.00
14594;BME280;7383;52.354;9.756;2023-05-23T07:04:17;-12762.06;;;17.70;100.00
14594;BME280;7383;52.354;9.756;2023-05-23T07:06:44;-12761.53;;;17.67;100.00
14594;BME280;7383;52.354;9.756;2023-05-23T07:09:10;-12761.09;;;17.65;100.00
14594;BME280;7383;52.354;9.756;2023-05-23T07:11:38;-12761.28;;;17.66;100.00
14594;BME280;7383;52.354;9.756;2023-05-23T07:14:05;-12760.31;;;17.60;100.00
14594;BME280;7383;52.354;9.756;2023-05-23T07:16:31;-12761.00;;;17.64;100.00
14594;BME280;7383;52.354;9.756;2023-05-23T07:18:59;-12761.63;;;17.68;100.00
14594;BME280;7383;52.354;9.756;2023-05-23T07:21:26;-12761.09;;;17.65;100.00
14594;BME280;7383;52.354;9.756;2023-05-23T07:23:52;-12760.84;;;17.63;100.00
14594;BME280;7383;52.354;9.756;2023-05-23T07:26:19;-12760.59;;;17.62;100.00
14594;BME280;7383;52.354;9.756;2023-05-23T07:28:46;-12760.25;;;17.60;100.00
14594;BME280;7383;52.354;9.756;2023-05-23T07:31:13;-12759.97;;;17.58;100.00
14594;BME280;7383;52.354;9.756;2023-05-23T07:33:39;-12759.28;;;17.54;100.00
14594;BME280;7383;52.354;9.756;2023-05-23T07:36:06;-12759.03;;;17.53;100.00
14594;BME280;7383;52.354;9.756;2023-05-23T07:38:32;-12759.63;;;17.56;100.00
14594;BME280;7383;52.354;9.756;2023-05-23T07:40:59;-12759.91;;;17.58;100.00
14594;BME280;7383;52.354;9.756;2023-05-23T07:43:25;-12761.09;;;17.65;100.00
14594;BME280;7383;52.354;9.756;2023-05-23T07:45:53;-12761.28;;;17.66;100.00
14594;BME280;7383;52.354;9.756;2023-05-23T07:48:20;-12760.84;;;17.63;100.00
14594;BME280;7383;52.354;9.756;2023-05-23T07:50:46;-12760.84;;;17.63;100.00
14594;BME280;7383;52.354;9.756;2023-05-23T07:53:13;-12760.94;;;17.64;100.00
14594;BME280;7383;52.354;9.756;2023-05-23T07:55:40;-12759.63;;;17.56;100.00
14594;BME280;7383;52.354;9.756;2023-05-23T07:58:06;-12758.41;;;17.49;100.00
14594;BME280;7383;52.354;9.756;2023-05-23T08:00:33;-12757.03;;;17.41;100.00
14594;BME280;7383;52.354;9.756;2023-05-23T08:03:02;-12757.47;;;17.44;100.00
14594;BME280;7383;52.354;9.756;2023-05-23T08:05:29;-12756.88;;;17.40;100.00
14594;BME280;7383;52.354;9.756;2023-05-23T08:07:55;-12756.44;;;17.38;100.00
14594;BME280;7383;52.354;9.756;2023-05-23T08:10:21;-12756.00;;;17.35;100.00
14594;BME280;7383;52.354;9.756;2023-05-23T08:12:48;-12755.84;;;17.34;100.00
14594;BME280;7383;52.354;9.756;2023-05-23T08:15:15;-12755.91;;;17.35;100.00
14594;BME280;7383;52.354;9.756;2023-05-23T08:17:41;-12756.19;;;17.36;100.00
14594;BME280;7383;52.354;9.756;2023-05-23T08:20:10;-12756.88;;;17.40;100.00
14594;BME280;7383;52.354;9.756;2023-05-23T08:22:37;-12755.75;;;17.34;100.00
14594;BME280;7383;52.354;9.756;2023-05-23T08:25:04;-12754.63;;;17.27;100.00
14594;BME280;7383;52.354;9.756;2023-05-23T08:27:31;-12754.34;;;17.26;100.00
14594;BME280;7383;52.354;9.756;2023-05-23T08:30:00;-12753.50;;;17.20;100.00
14594;BME280;7383;52.354;9.756;2023-05-23T08:32:27;-12752.97;;;17.17;100.00
14594;BME280;7383;52.354;9.756;2023-05-23T08:34:53;-12752.81;;;17.16;100.00
14594;BME280;7383;52.354;9.756;2023-05-23T08:37:21;-12752.38;;;17.14;100.00
14594;BME280;7383;52.354;9.756;2023-05-23T08:39:47;-12752.28;;;17.13;100.00
14594;BME280;7383;52.354;9.756;2023-05-23T08:42:14;-12751.16;;;17.07;100.00
14594;BME280;7383;52.354;9.756;2023-05-23T08:44:40;-12750.56;;;17.03;100.00
14594;BME280;7383;52.354;9.756;2023-05-23T08:47:07;-12750.91;;;17.05;100.00
14594;BME280;7383;52.354;9.756;2023-05-23T08:49:36;-12751.00;;;17.06;100.00
14594;BME280;7383;52.354;9.756;2023-05-23T08:52:03;-12751.16;;;17.07;100.00
14594;BME280;7383;52.354;9.756;2023-05-23T08:54:32;-12750.56;;;17.03;100.00
14594;BME280;7383;52.354;9.756;2023-05-23T08:56:59;-12750.81;;;17.05;100.00
14594;BME280;7383;52.354;9.756;2023-05-23T08:59:26;-12750.72;;;17.04;100.00
14594;BME280;7383;52.354;9.756;2023-05-23T09:01:54;-12750.66;;;17.04;100.00
14594;BME280;7383;52.354;9.756;2023-05-23T09:04:22;-12750.31;;;17.02;100.00
14594;BME280;7383;52.354;9.756;2023-05-23T09:06:49;-12749.44;;;16.97;100.00
14594;BME280;7383;52.354;9.756;2023-05-23T09:09:16;-12749.09;;;16.95;100.00
14594;BME280;7383;52.354;9.756;2023-05-23T09:11:45;-12749.09;;;16.95;100.00
14594;BME280;7383;52.354;9.756;2023-05-23T09:14:12;-12748.56;;;16.92;100.00
14594;BME280;7383;52.354;9.756;2023-05-23T09:16:45;-12748.56;;;16.92;100.00
14594;BME280;7383;52.354;9.756;2023-05-23T09:19:12;-12747.97;;;16.88;100.00
14594;BME280;7383;52.354;9.756;2023-05-23T09:21:42;-12747.09;;;16.83;100.00
14594;BME280;7383;52.354;9.756;2023-05-23T09:24:08;-12747.72;;;16.87;100.00
14594;BME280;7383;52.354;9.756;2023-05-23T09:26:35;-12747.78;;;16.87;100.00
14594;BME280;7383;52.354;9.756;2023-05-23T09:29:05;-12747.72;;;16.87;100.00
14594;BME280;7383;52.354;9.756;2023-05-23T09:31:32;-12747.28;;;16.84;100.00
14594;BME280;7383;52.354;9.756;2023-05-23T09:33:58;-12746.59;;;16.80;100.00
14594;BME280;7383;52.354;9.756;2023-05-23T09:36:27;-12745.97;;;16.77;100.00
14594;BME280;7383;52.354;9.756;2023-05-23T09:38:54;-12746.06;;;16.77;100.00
14594;BME280;7383;52.354;9.756;2023-05-23T09:41:21;-12746.41;;;16.79;100.00
14594;BME280;7383;52.354;9.756;2023-05-23T09:43:49;-12745.81;;;16.76;100.00
14594;BME280;7383;52.354;9.756;2023-05-23T09:46:18;-12745.63;;;16.75;100.00
14594;BME280;7383;52.354;9.756;2023-05-23T09:48:45;-12744.25;;;16.66;100.00
14594;BME280;7383;52.354;9.756;2023-05-23T09:51:11;-12743.03;;;16.59;100.00
14594;BME280;7383;52.354;9.756;2023-05-23T09:53:38;-12742.09;;;16.54;100.00
14594;BME280;7383;52.354;9.756;2023-05-23T09:56:06;-12742.25;;;16.55;100.00
14594;BME280;7383;52.354;9.756;2023-05-23T09:58:37;-12743.13;;;16.60;100.00
14594;BME280;7383;52.354;9.756;2023-05-23T10:01:06;-12743.66;;;16.63;100.00
14594;BME280;7383;52.354;9.756;2023-05-23T10:03:41;-12743.81;;;16.64;100.00
14594;BME280;7383;52.354;9.756;2023-05-23T10:06:15;-12743.66;;;16.63;100.00
14594;BME280;7383;52.354;9.756;2023-05-23T10:08:43;-12743.28;;;16.61;100.00
14594;BME280;7383;52.354;9.756;2023-05-23T10:14:13;-12741.81;;;16.52;100.00
14594;BME280;7383;52.354;9.756;2023-05-23T10:16:48;-12743.03;;;16.59;100.00
14594;BME280;7383;52.354;9.756;2023-05-23T10:19:23;-12743.91;;;16.64;100.00
14594;BME280;7383;52.354;9.756;2023-05-23T10:21:58;-12744.94;;;16.70;100.00
14594;BME280;7383;52.354;9.756;2023-05-23T10:24:25;-12745.03;;;16.71;100.00
14594;BME280;7383;52.354;9.756;2023-05-23T10:26:52;-12745.97;;;16.77;100.00
14594;BME280;7383;52.354;9.756;2023-05-23T10:29:19;-12746.06;;;16.77;100.00
14594;BME280;7383;52.354;9.756;2023-05-23T10:31:46;-12746.06;;;16.77;100.00
14594;BME280;7383;52.354;9.756;2023-05-23T10:34:20;-12747.00;;;16.83;100.00
14594;BME280;7383;52.354;9.756;2023-05-23T10:36:54;-12747.53;;;16.86;100.00
14594;BME280;7383;52.354;9.756;2023-05-23T10:39:32;-12746.75;;;16.81;100.00
14594;BME280;7383;52.354;9.756;2023-05-23T10:42:03;-12745.19;;;16.72;100.00
14594;BME280;7383;52.354;9.756;2023-05-23T10:44:33;-12744.34;;;16.67;100.00
14594;BME280;7383;52.354;9.756;2023-05-23T10:47:02;-12744.34;;;16.67;100.00
14594;BME280;7383;52.354;9.756;2023-05-23T10:49:53;-12744.06;;;16.65;100.00
14594;BME280;7383;52.354;9.756;2023-05-23T10:52:23;-12742.44;;;16.56;100.00
14594;BME280;7383;52.354;9.756;2023-05-23T10:54:51;-12741.91;;;16.53;100.00
14594;BME280;7383;52.354;9.756;2023-05-23T10:57:19;-12740.44;;;16.44;100.00
14594;BME280;7383;52.354;9.756;2023-05-23T10:59:48;-12741.03;;;16.48;100.00
14594;BME280;7383;52.354;9.756;2023-05-23T11:02:19;-12740.69;;;16.46;100.00
14594;BME280;7383;52.354;9.756;2023-05-23T11:05:17;-12739.41;;;16.38;100.00
14594;BME280;7383;52.354;9.756;2023-05-23T11:07:45;-12738.44;;;16.33;100.00
14594;BME280;7383;52.354;9.756;2023-05-23T11:10:12;-12737.94;;;16.30;100.00
14594;BME280;7383;52.354;9.756;2023-05-23T11:12:40;-12737.41;;;16.27;100.00
14594;BME280;7383;52.354;9.756;2023-05-23T11:15:19;-12737.41;;;16.27;100.00
14594;BME280;7383;52.354;9.756;2023-05-23T11:17:51;-12737.75;;;16.29;100.00
14594;BME280;7383;52.354;9.756;2023-05-23T11:20:19;-12738.28;;;16.32;100.00
14594;BME280;7383;52.354;9.756;2023-05-23T11:22:59;-12738.44;;;16.33;100.00
14594;BME280;7383;52.354;9.756;2023-05-23T11:25:40;-12738.19;;;16.31;100.00
14594;BME280;7383;52.354;9.756;2023-05-23T11:28:07;-12738.03;;;16.30;100.00
14594;BME280;7383;52.354;9.756;2023-05-23T11:30:35;-12737.94;;;16.30;100.00
14594;BME280;7383;52.354;9.756;2023-05-23T11:33:05;-12739.84;;;16.41;100.00
14594;BME280;7383;52.354;9.756;2023-05-23T11:35:33;-12741.56;;;16.51;100.00
14594;BME280;7383;52.354;9.756;2023-05-23T11:38:02;-12743.28;;;16.61;100.00
14594;BME280;7383;52.354;9.756;2023-05-23T11:40:31;-12743.81;;;16.64;100.00
14594;BME280;7383;52.354;9.756;2023-05-23T11:42:58;-12745.38;;;16.73;100.00
14594;BME280;7383;52.354;9.756;2023-05-23T11:45:26;-12747.72;;;16.87;100.00
14594;BME280;7383;52.354;9.756;2023-05-23T11:47:53;-12748.75;;;16.93;100.00
14594;BME280;7383;52.354;9.756;2023-05-23T11:50:20;-12748.66;;;16.92;100.00
14594;BME280;7383;52.354;9.756;2023-05-23T11:52:49;-12747.78;;;16.87;100.00
14594;BME280;7383;52.354;9.756;2023-05-23T11:55:18;-12746.66;;;16.81;100.00
14594;BME280;7383;52.354;9.756;2023-05-23T11:57:45;-12745.81;;;16.76;100.00
14594;BME280;7383;52.354;9.756;2023-05-23T12:00:14;-12745.91;;;16.76;100.00
14594;BME280;7383;52.354;9.756;2023-05-23T12:02:42;-12745.91;;;16.76;100.00
14594;BME280;7383;52.354;9.756;2023-05-23T12:05:10;-12747.72;;;16.87;100.00
14594;BME280;7383;52.354;9.756;2023-05-23T12:07:39;-12751.78;;;17.10;100.00
14594;BME280;7383;52.354;9.756;2023-05-23T12:10:07;-12756.09;;;17.36;100.00
14594;BME280;7383;52.354;9.756;2023-05-23T12:12:35;-12759.81;;;17.57;100.00
14594;BME280;7383;52.354;9.756;2023-05-23T12:15:03;-12761.78;;;17.69;100.00
14594;BME280;7383;52.354;9.756;2023-05-23T12:17:32;-12763.88;;;17.81;100.00
14594;BME280;7383;52.354;9.756;2023-05-23T12:19:59;-12768.53;;;18.08;100.00
14594;BME280;7383;52.354;9.756;2023-05-23T12:22:27;-12770.25;;;18.18;100.00
14594;BME280;7383;52.354;9.756;2023-05-23T12:24:54;-12769.28;;;18.13;100.00
14594;BME280;7383;52.354;9.756;2023-05-23T12:27:26;-12766.38;;;17.96;100.00
14594;BME280;7383;52.354;9.756;2023-05-23T12:30:08;-12762.81;;;17.75;100.00
14594;BME280;7383;52.354;9.756;2023-05-23T12:32:38;-12761.44;;;17.67;100.00
14594;BME280;7383;52.354;9.756;2023-05-23T12:35:06;-12760.84;;;17.63;100.00
14594;BME280;7383;52.354;9.756;2023-05-23T12:37:33;-12760.84;;;17.63;100.00
14594;BME280;7383;52.354;9.756;2023-05-23T12:40:09;-12761.28;;;17.66;100.00
14594;BME280;7383;52.354;9.756;2023-05-23T12:42:43;-12763.53;;;17.79;100.00
14594;BME280;7383;52.354;9.756;2023-05-23T12:45:15;-12762.66;;;17.74;100.00
14594;BME280;7383;52.354;9.756;2023-05-23T12:47:42;-12766.53;;;17.97;100.00
14594;BME280;7383;52.354;9.756;2023-05-23T12:50:09;-12771.03;;;18.23;100.00
14594;BME280;7383;52.354;9.756;2023-05-23T12:52:37;-12772.91;;;18.34;100.00
14594;BME280;7383;52.354;9.756;2023-05-23T12:55:06;-12775.59;;;18.50;100.00
14594;BME280;7383;52.354;9.756;2023-05-23T12:57:35;-12780.69;;;18.80;100.00